createdAt,value
2023-03-06T00:00:44.254Z,0.00
2023-03-06T00:01:44.242Z,0.00
2023-03-06T00:02:44.205Z,0.00
2023-03-06T00:03:44.288Z,0.00
2023-03-06T00:04:44.160Z,0.00
2023-03-06T00:05:44.206Z,0.00
2023-03-06T00:06:44.174Z,0.00
2023-03-06T00:07:44.130Z,0.00
2023-03-06T00:08:44.145Z,0.00
2023-03-06T00:09:44.134Z,0.00
2023-03-06T00:10:44.087Z,0.00
2023-03-06T00:11:44.098Z,0.00
2023-03-06T00:12:44.066Z,0.00
2023-03-06T00:13:44.060Z,0.00
2023-03-06T00:14:44.040Z,0.00
2023-03-06T00:15:44.056Z,0.00
2023-03-06T00:16:44.029Z,0.00
2023-03-06T00:17:44.012Z,0.00
2023-03-06T00:18:44.013Z,0.00
2023-03-06T00:19:43.981Z,0.00
2023-03-06T00:20:43.969Z,0.00
2023-03-06T00:21:43.996Z,0.00
2023-03-06T00:22:43.939Z,0.00
2023-03-06T00:23:43.959Z,0.00
2023-03-06T00:24:43.918Z,0.00
2023-03-06T00:25:43.897Z,0.00
2023-03-06T00:26:43.912Z,0.00
2023-03-06T00:27:43.910Z,0.00
2023-03-06T00:28:43.875Z,0.00
2023-03-06T00:29:43.856Z,0.00
2023-03-06T00:30:43.868Z,0.00
2023-03-06T00:31:43.859Z,0.00
2023-03-06T00:32:43.847Z,0.00
2023-03-06T00:33:43.862Z,0.00
2023-03-06T00:34:43.781Z,0.00
2023-03-06T00:35:43.795Z,0.00
2023-03-06T00:36:43.805Z,0.00
2023-03-06T00:37:43.760Z,0.00
2023-03-06T00:38:43.750Z,0.00
2023-03-06T00:39:43.746Z,0.00
2023-03-06T00:40:43.737Z,0.00
2023-03-06T00:41:46.644Z,0.00
2023-03-06T00:42:43.697Z,0.00
2023-03-06T00:43:43.672Z,0.00
2023-03-06T00:44:43.663Z,0.00
2023-03-06T00:45:43.721Z,0.00
2023-03-06T00:46:43.665Z,0.00
2023-03-06T00:47:43.621Z,0.00
2023-03-06T00:48:43.625Z,0.00
2023-03-06T00:49:43.592Z,0.00
2023-03-06T00:50:43.605Z,0.00
2023-03-06T00:51:43.641Z,0.00
2023-03-06T00:52:43.564Z,0.00
2023-03-06T00:53:43.565Z,0.00
2023-03-06T00:54:43.549Z,0.00
2023-03-06T00:55:43.571Z,0.00
2023-03-06T00:56:43.535Z,0.00
2023-03-06T00:57:43.544Z,0.00
2023-03-06T00:58:43.483Z,0.00
2023-03-06T00:59:43.467Z,0.00
2023-03-06T01:00:43.498Z,0.00
2023-03-06T01:01:43.486Z,0.00
2023-03-06T01:02:43.475Z,0.00
2023-03-06T01:03:43.460Z,0.00
2023-03-06T01:04:43.405Z,0.00
2023-03-06T01:05:43.413Z,0.00
2023-03-06T01:06:43.395Z,0.00
2023-03-06T01:07:43.376Z,0.00
2023-03-06T01:08:43.385Z,0.00
2023-03-06T01:09:43.402Z,0.00
2023-03-06T01:10:43.374Z,0.00
2023-03-06T01:11:43.339Z,0.00
2023-03-06T01:12:43.320Z,0.00
2023-03-06T01:13:43.301Z,0.00
2023-03-06T01:14:43.281Z,0.00
2023-03-06T01:15:43.323Z,0.00
2023-03-06T01:16:43.322Z,0.00
2023-03-06T01:17:43.265Z,0.00
2023-03-06T01:18:43.257Z,0.00
2023-03-06T01:19:43.240Z,0.00
2023-03-06T01:20:43.219Z,0.00
2023-03-06T01:21:43.261Z,0.00
2023-03-06T01:22:43.179Z,0.00
2023-03-06T01:23:43.183Z,0.00
2023-03-06T01:24:43.163Z,0.00
2023-03-06T01:25:43.163Z,0.00
2023-03-06T01:26:43.168Z,0.00
2023-03-06T01:27:43.142Z,0.00
2023-03-06T01:28:43.102Z,0.00
2023-03-06T01:29:43.094Z,0.00
2023-03-06T01:30:43.109Z,0.00
2023-03-06T01:31:43.117Z,0.00
2023-03-06T01:32:43.122Z,0.00
2023-03-06T01:33:43.087Z,0.00
2023-03-06T01:34:43.034Z,0.00
2023-03-06T01:35:43.089Z,0.00
2023-03-06T01:36:43.041Z,0.00
2023-03-06T01:37:43.033Z,0.00
2023-03-06T01:38:43.023Z,0.00
2023-03-06T01:39:43.053Z,0.00
2023-03-06T01:40:42.971Z,0.00
2023-03-06T01:41:42.958Z,0.00
2023-03-06T01:42:42.962Z,0.00
2023-03-06T01:43:42.945Z,0.00
2023-03-06T01:44:42.935Z,0.00
2023-03-06T01:45:42.986Z,0.00
2023-03-06T01:46:42.911Z,0.00
2023-03-06T01:47:42.890Z,0.00
2023-03-06T01:48:42.913Z,0.00
2023-03-06T01:49:42.848Z,0.00
2023-03-06T01:50:42.831Z,0.00
2023-03-06T01:51:42.890Z,0.00
2023-03-06T01:52:42.819Z,0.00
2023-03-06T01:53:42.814Z,0.00
2023-03-06T01:54:42.818Z,0.00
2023-03-06T01:55:42.835Z,0.00
2023-03-06T01:56:42.770Z,0.00
2023-03-06T01:57:42.789Z,0.00
2023-03-06T01:58:42.735Z,0.00
2023-03-06T01:59:42.723Z,0.00
2023-03-06T02:00:42.713Z,0.00
2023-03-06T02:01:42.738Z,0.00
2023-03-06T02:02:42.934Z,0.00
2023-03-06T02:04:54.690Z,0.00
2023-03-06T02:05:55.671Z,0.00
2023-03-06T02:06:55.665Z,0.00
2023-03-06T02:07:55.664Z,0.00
2023-03-06T02:08:55.635Z,0.00
2023-03-06T02:09:55.642Z,0.00
2023-03-06T02:10:55.598Z,0.00
2023-03-06T02:11:55.586Z,0.00
2023-03-06T02:12:55.582Z,0.00
2023-03-06T02:13:55.578Z,0.00
2023-03-06T02:14:55.564Z,0.00
2023-03-06T02:15:55.579Z,0.00
2023-03-06T02:16:55.619Z,0.00
2023-03-06T02:17:55.579Z,0.00
2023-03-06T02:18:55.509Z,0.00
2023-03-06T02:19:55.511Z,0.00
2023-03-06T02:20:55.511Z,0.00
2023-03-06T02:21:55.502Z,0.00
2023-03-06T02:22:55.473Z,0.00
2023-03-06T02:23:55.453Z,0.00
2023-03-06T02:24:55.422Z,0.00
2023-03-06T02:25:55.408Z,0.00
2023-03-06T02:26:55.413Z,0.00
2023-03-06T02:27:55.428Z,0.00
2023-03-06T02:28:55.392Z,0.00
2023-03-06T02:29:55.369Z,0.00
2023-03-06T02:30:55.429Z,0.00
2023-03-06T02:31:55.339Z,0.00
2023-03-06T02:32:55.336Z,0.00
2023-03-06T02:33:55.358Z,0.00
2023-03-06T02:34:55.310Z,0.00
2023-03-06T02:35:55.336Z,0.00
2023-03-06T02:36:55.289Z,0.00
2023-03-06T02:37:55.280Z,0.00
2023-03-06T02:38:55.276Z,0.00
2023-03-06T02:39:55.268Z,0.00
2023-03-06T02:40:55.229Z,0.00
2023-03-06T02:41:55.229Z,0.00
2023-03-06T02:42:55.209Z,0.00
2023-03-06T02:43:55.220Z,0.00
2023-03-06T02:44:55.176Z,0.00
2023-03-06T02:45:55.276Z,0.00
2023-03-06T02:46:55.161Z,0.00
2023-03-06T02:47:55.151Z,0.00
2023-03-06T02:48:55.144Z,0.00
2023-03-06T02:49:55.122Z,0.00
2023-03-06T02:50:55.105Z,0.00
2023-03-06T02:51:55.120Z,0.00
2023-03-06T02:52:55.090Z,0.00
2023-03-06T02:53:55.066Z,0.00
2023-03-06T02:54:55.062Z,0.00
2023-03-06T02:55:55.054Z,0.00
2023-03-06T02:56:55.035Z,0.00
2023-03-06T02:57:55.099Z,0.00
2023-03-06T02:58:55.041Z,0.00
2023-03-06T02:59:55.004Z,0.00
2023-03-06T03:00:54.979Z,0.00
2023-03-06T03:01:54.972Z,0.00
2023-03-06T03:02:54.961Z,0.00
2023-03-06T03:03:54.979Z,0.00
2023-03-06T03:04:55.047Z,0.00
2023-03-06T03:05:54.912Z,0.00
2023-03-06T03:06:54.911Z,0.00
2023-03-06T03:07:54.911Z,0.00
2023-03-06T03:08:54.877Z,0.00
2023-03-06T03:09:54.915Z,0.00
2023-03-06T03:10:54.861Z,0.00
2023-03-06T03:11:54.848Z,0.00
2023-03-06T03:12:54.834Z,0.00
2023-03-06T03:13:54.835Z,0.00
2023-03-06T03:14:54.819Z,0.00
2023-03-06T03:15:54.871Z,0.00
2023-03-06T03:16:54.779Z,0.00
2023-03-06T03:17:55.381Z,0.00
2023-03-06T03:18:54.754Z,0.00
2023-03-06T03:19:54.762Z,0.00
2023-03-06T03:20:54.732Z,0.00
2023-03-06T03:21:54.763Z,0.00
2023-03-06T03:22:54.715Z,0.00
2023-03-06T03:23:54.702Z,0.00
2023-03-06T03:24:54.780Z,0.00
2023-03-06T03:25:54.673Z,0.00
2023-03-06T03:26:54.662Z,0.00
2023-03-06T03:27:54.704Z,0.00
2023-03-06T03:28:54.658Z,0.00
2023-03-06T03:29:54.639Z,0.00
2023-03-06T03:30:54.633Z,0.00
2023-03-06T03:31:54.606Z,0.00
2023-03-06T03:32:54.632Z,0.00
2023-03-06T03:33:54.618Z,0.00
2023-03-06T03:34:54.585Z,0.00
2023-03-06T03:35:54.576Z,0.00
2023-03-06T03:36:54.558Z,0.00
2023-03-06T03:37:54.566Z,0.00
2023-03-06T03:38:54.514Z,0.00
2023-03-06T03:39:54.540Z,0.00
2023-03-06T03:40:54.490Z,0.00
2023-03-06T03:41:54.483Z,0.00
2023-03-06T03:42:54.479Z,0.00
2023-03-06T03:43:54.463Z,0.00
2023-03-06T03:44:54.447Z,0.00
2023-03-06T03:45:54.486Z,0.00
2023-03-06T03:46:54.433Z,0.00
2023-03-06T03:47:54.419Z,0.00
2023-03-06T03:48:54.396Z,0.00
2023-03-06T03:49:54.397Z,0.00
2023-03-06T03:50:54.373Z,0.00
2023-03-06T03:51:54.400Z,0.00
2023-03-06T03:52:54.354Z,0.00
2023-03-06T03:53:54.338Z,0.00
2023-03-06T03:54:54.326Z,0.00
2023-03-06T03:55:54.307Z,0.00
2023-03-06T03:56:54.299Z,0.00
2023-03-06T03:57:54.327Z,0.00
2023-03-06T03:58:54.274Z,0.00
2023-03-06T03:59:54.263Z,0.00
2023-03-06T04:00:54.239Z,0.00
2023-03-06T04:01:54.256Z,0.00
2023-03-06T04:02:54.229Z,0.00
2023-03-06T04:03:54.243Z,0.00
2023-03-06T04:04:54.220Z,0.00
2023-03-06T04:05:54.184Z,0.00
2023-03-06T04:06:54.200Z,0.00
2023-03-06T04:07:54.194Z,0.00
2023-03-06T04:08:54.148Z,0.00
2023-03-06T04:09:54.166Z,0.00
2023-03-06T04:10:54.132Z,0.00
2023-03-06T04:11:54.125Z,0.00
2023-03-06T04:12:54.105Z,0.00
2023-03-06T04:13:54.088Z,0.00
2023-03-06T04:14:54.100Z,0.00
2023-03-06T04:15:54.161Z,0.00
2023-03-06T04:16:54.055Z,0.00
2023-03-06T04:17:54.030Z,0.00
2023-03-06T04:18:54.029Z,0.00
2023-03-06T04:19:54.027Z,0.00
2023-03-06T04:20:53.994Z,0.00
2023-03-06T04:21:54.025Z,0.00
2023-03-06T04:22:53.972Z,0.00
2023-03-06T04:23:53.988Z,0.00
2023-03-06T04:24:53.962Z,0.00
2023-03-06T04:25:53.968Z,0.00
2023-03-06T04:26:53.955Z,0.00
2023-03-06T04:27:53.942Z,0.00
2023-03-06T04:28:53.899Z,0.00
2023-03-06T04:29:53.894Z,0.00
2023-03-06T04:30:53.887Z,0.00
2023-03-06T04:31:53.882Z,0.00
2023-03-06T04:32:53.880Z,0.00
2023-03-06T04:33:53.882Z,0.00
2023-03-06T04:34:53.866Z,0.00
2023-03-06T04:35:53.847Z,0.00
2023-03-06T04:36:53.798Z,0.00
2023-03-06T04:37:53.784Z,0.00
2023-03-06T04:38:53.801Z,0.00
2023-03-06T04:39:53.803Z,0.00
2023-03-06T04:40:53.758Z,0.00
2023-03-06T04:41:53.753Z,0.00
2023-03-06T04:42:53.739Z,0.00
2023-03-06T04:43:53.721Z,0.00
2023-03-06T04:44:53.723Z,0.00
2023-03-06T04:45:53.764Z,0.00
2023-03-06T04:46:53.675Z,0.00
2023-03-06T04:47:53.660Z,0.00
2023-03-06T04:48:53.662Z,0.00
2023-03-06T04:49:53.651Z,0.00
2023-03-06T04:50:53.639Z,0.00
2023-03-06T04:51:53.671Z,0.00
2023-03-06T04:52:53.601Z,0.00
2023-03-06T04:53:53.600Z,0.00
2023-03-06T04:54:53.595Z,0.00
2023-03-06T04:55:53.567Z,0.00
2023-03-06T04:56:53.554Z,0.00
2023-03-06T04:57:53.572Z,0.00
2023-03-06T04:58:53.583Z,0.00
2023-03-06T04:59:53.549Z,0.00
2023-03-06T05:00:53.551Z,0.00
2023-03-06T05:01:53.521Z,0.00
2023-03-06T05:02:53.482Z,0.00
2023-03-06T05:03:53.502Z,0.00
2023-03-06T05:04:53.511Z,0.00
2023-03-06T05:05:53.443Z,0.00
2023-03-06T05:06:53.459Z,0.00
2023-03-06T05:07:53.429Z,0.00
2023-03-06T05:08:53.406Z,0.00
2023-03-06T05:09:53.428Z,0.00
2023-03-06T05:10:53.385Z,0.00
2023-03-06T05:11:53.369Z,0.00
2023-03-06T05:12:53.374Z,0.00
2023-03-06T05:13:53.350Z,0.00
2023-03-06T05:14:53.341Z,0.00
2023-03-06T05:15:53.338Z,0.00
2023-03-06T05:16:53.303Z,0.00
2023-03-06T05:17:53.301Z,0.00
2023-03-06T05:18:53.302Z,0.00
2023-03-06T05:19:53.294Z,0.00
2023-03-06T05:20:53.260Z,0.00
2023-03-06T05:21:53.293Z,0.00
2023-03-06T05:22:53.228Z,0.00
2023-03-06T05:23:53.232Z,0.00
2023-03-06T05:24:53.238Z,0.00
2023-03-06T05:25:53.219Z,0.00
2023-03-06T05:26:53.180Z,0.00
2023-03-06T05:27:53.209Z,0.00
2023-03-06T05:28:53.166Z,0.00
2023-03-06T05:29:53.140Z,4.00
2023-03-06T05:30:53.147Z,4.00
2023-03-06T05:31:53.205Z,0.00
2023-03-06T05:32:53.202Z,4.00
2023-03-06T05:33:53.131Z,4.00
2023-03-06T05:34:53.116Z,4.00
2023-03-06T05:35:53.135Z,4.00
2023-03-06T05:36:53.058Z,8.00
2023-03-06T05:37:53.051Z,8.00
2023-03-06T05:38:53.038Z,12.00
2023-03-06T05:39:53.054Z,12.00
2023-03-06T05:40:53.019Z,12.00
2023-03-06T05:41:53.008Z,16.00
2023-03-06T05:42:53.000Z,20.00
2023-03-06T05:43:52.978Z,24.00
2023-03-06T05:44:52.992Z,28.00
2023-03-06T05:45:53.022Z,28.00
2023-03-06T05:46:52.948Z,32.00
2023-03-06T05:47:52.937Z,40.00
2023-03-06T05:48:52.952Z,48.00
2023-03-06T05:49:52.922Z,60.00
2023-03-06T05:50:52.902Z,68.00
2023-03-06T05:51:52.968Z,76.00
2023-03-06T05:52:52.872Z,80.00
2023-03-06T05:53:52.901Z,92.00
2023-03-06T05:54:52.868Z,108.00
2023-03-06T05:55:52.834Z,120.00
2023-03-06T05:56:52.838Z,124.00
2023-03-06T05:57:52.839Z,128.00
2023-03-06T05:58:52.802Z,144.00
2023-03-06T05:59:52.786Z,164.00
2023-03-06T06:00:52.780Z,196.00
2023-03-06T06:01:52.763Z,212.00
2023-03-06T06:02:52.764Z,224.00
2023-03-06T06:03:52.826Z,236.00
2023-03-06T06:04:52.757Z,252.00
2023-03-06T06:05:52.711Z,268.00
2023-03-06T06:06:52.692Z,284.00
2023-03-06T06:07:52.689Z,296.00
2023-03-06T06:08:52.658Z,312.00
2023-03-06T06:09:52.691Z,340.00
2023-03-06T06:10:53.540Z,372.00
2023-03-06T06:11:52.641Z,412.00
2023-03-06T06:12:52.620Z,444.00
2023-03-06T06:13:52.627Z,464.00
2023-03-06T06:14:52.589Z,476.00
2023-03-06T06:15:52.635Z,484.00
2023-03-06T06:16:52.569Z,520.00
2023-03-06T06:17:52.560Z,568.00
2023-03-06T06:18:52.534Z,620.00
2023-03-06T06:19:52.530Z,684.00
2023-03-06T06:20:54.381Z,704.00
2023-03-06T06:21:52.540Z,724.00
2023-03-06T06:22:52.500Z,724.00
2023-03-06T06:23:52.481Z,724.00
2023-03-06T06:24:52.479Z,724.00
2023-03-06T06:25:52.483Z,712.00
2023-03-06T06:26:52.449Z,748.00
2023-03-06T06:27:52.498Z,820.00
2023-03-06T06:28:52.412Z,840.00
2023-03-06T06:29:52.425Z,884.00
2023-03-06T06:30:52.405Z,948.00
2023-03-06T06:31:52.375Z,980.00
2023-03-06T06:32:52.358Z,1060.00
2023-03-06T06:33:52.387Z,1252.00
2023-03-06T06:34:52.361Z,1440.00
2023-03-06T06:35:52.397Z,1568.00
2023-03-06T06:36:53.667Z,1648.00
2023-03-06T06:37:52.323Z,1648.00
2023-03-06T06:38:52.295Z,1652.00
2023-03-06T06:39:52.327Z,1604.00
2023-03-06T06:41:26.800Z,1636.00
2023-03-06T06:42:09.971Z,1704.00
2023-03-06T06:42:52.247Z,1692.00
2023-03-06T06:43:52.226Z,1688.00
2023-03-06T06:44:52.233Z,1696.00
2023-03-06T06:45:55.790Z,1700.00
2023-03-06T06:47:21.797Z,1732.00
2023-03-06T06:47:52.208Z,1792.00
2023-03-06T06:48:52.168Z,1780.00
2023-03-06T06:49:52.176Z,1812.00
2023-03-06T06:50:52.170Z,1924.00
2023-03-06T06:51:52.154Z,2064.00
2023-03-06T06:52:52.107Z,2204.00
2023-03-06T06:53:52.101Z,2296.00
2023-03-06T06:54:52.116Z,2304.00
2023-03-06T06:55:52.097Z,2316.00
2023-03-06T06:56:52.074Z,2368.00
2023-03-06T06:57:52.098Z,2384.00
2023-03-06T06:58:52.045Z,2444.00
2023-03-06T06:59:53.954Z,2564.00
2023-03-06T07:00:52.030Z,2684.00
2023-03-06T07:01:52.154Z,2756.00
2023-03-06T07:02:51.987Z,2680.00
2023-03-06T07:03:52.077Z,2576.00
2023-03-06T07:05:03.570Z,2648.00
2023-03-06T07:05:51.958Z,2988.00
2023-03-06T07:06:51.949Z,3268.00
2023-03-06T07:07:51.946Z,3412.00
2023-03-06T07:08:51.921Z,3480.00
2023-03-06T07:09:51.932Z,3556.00
2023-03-06T07:10:51.895Z,3628.00
2023-03-06T07:11:51.881Z,3592.00
2023-03-06T07:12:51.870Z,3464.00
2023-03-06T07:13:51.844Z,3356.00
2023-03-06T07:14:51.855Z,3296.00
2023-03-06T07:15:51.920Z,3300.00
2023-03-06T07:16:51.845Z,3356.00
2023-03-06T07:17:51.814Z,3328.00
2023-03-06T07:18:51.784Z,3180.00
2023-03-06T07:19:51.773Z,3184.00
2023-03-06T07:20:51.770Z,3240.00
2023-03-06T07:21:51.782Z,3376.00
2023-03-06T07:22:52.072Z,3420.00
2023-03-06T07:23:51.736Z,3396.00
2023-03-06T07:24:51.709Z,3400.00
2023-03-06T07:25:51.714Z,3348.00
2023-03-06T07:26:51.680Z,3424.00
2023-03-06T07:27:54.005Z,3508.00
2023-03-06T07:28:53.170Z,3528.00
2023-03-06T07:29:51.652Z,3604.00
2023-03-06T07:30:51.772Z,3652.00
2023-03-06T07:31:51.657Z,3572.00
2023-03-06T07:32:51.633Z,3640.00
2023-03-06T07:33:51.672Z,3976.00
2023-03-06T07:34:51.590Z,4340.00
2023-03-06T07:35:51.631Z,4568.00
2023-03-06T07:36:51.605Z,4712.00
2023-03-06T07:37:51.555Z,4840.00
2023-03-06T07:38:51.538Z,5048.00
2023-03-06T07:39:51.560Z,5488.00
2023-03-06T07:40:51.561Z,6004.00
2023-03-06T07:41:51.521Z,6444.00
2023-03-06T07:42:51.490Z,6644.00
2023-03-06T07:43:51.473Z,6704.00
2023-03-06T07:44:51.473Z,6704.00
2023-03-06T07:45:51.476Z,6800.00
2023-03-06T07:46:51.499Z,6588.00
2023-03-06T07:47:51.457Z,6288.00
2023-03-06T07:48:51.416Z,6320.00
2023-03-06T07:49:51.407Z,6616.00
2023-03-06T07:50:51.400Z,6872.00
2023-03-06T07:51:51.403Z,7084.00
2023-03-06T07:52:51.366Z,7180.00
2023-03-06T07:53:51.363Z,7096.00
2023-03-06T07:54:51.350Z,6704.00
2023-03-06T07:55:51.344Z,6400.00
2023-03-06T07:56:51.319Z,6152.00
2023-03-06T07:57:51.346Z,5436.00
2023-03-06T07:58:51.307Z,4828.00
2023-03-06T07:59:51.272Z,4648.00
2023-03-06T08:00:51.257Z,4996.00
2023-03-06T08:01:51.252Z,5612.00
2023-03-06T08:02:51.291Z,5796.00
2023-03-06T08:03:51.301Z,6032.00
2023-03-06T08:04:51.206Z,5880.00
2023-03-06T08:05:51.196Z,5624.00
2023-03-06T08:06:51.193Z,5396.00
2023-03-06T08:07:51.187Z,5512.00
2023-03-06T08:08:51.170Z,5668.00
2023-03-06T08:09:51.178Z,6352.00
2023-03-06T08:10:51.143Z,7504.00
2023-03-06T08:11:51.179Z,8572.00
2023-03-06T08:12:51.123Z,9584.00
2023-03-06T08:13:51.139Z,9604.00
2023-03-06T08:14:51.086Z,8396.00
2023-03-06T08:15:51.097Z,7664.00
2023-03-06T08:16:51.122Z,7736.00
2023-03-06T08:17:51.050Z,8192.00
2023-03-06T08:18:51.037Z,7244.00
2023-03-06T08:19:51.027Z,6716.00
2023-03-06T08:20:51.005Z,6108.00
2023-03-06T08:21:51.035Z,5740.00
2023-03-06T08:22:50.971Z,5468.00
2023-03-06T08:23:50.983Z,5140.00
2023-03-06T08:24:50.953Z,4708.00
2023-03-06T08:25:50.945Z,4696.00
2023-03-06T08:26:50.939Z,4648.00
2023-03-06T08:27:50.948Z,4732.00
2023-03-06T08:28:50.910Z,4800.00
2023-03-06T08:29:50.907Z,5480.00
2023-03-06T08:30:50.896Z,6236.00
2023-03-06T08:31:50.885Z,6992.00
2023-03-06T08:32:50.853Z,7476.00
2023-03-06T08:33:50.880Z,7564.00
2023-03-06T08:34:50.836Z,7024.00
2023-03-06T08:35:50.953Z,6432.00
2023-03-06T08:36:50.824Z,6164.00
2023-03-06T08:37:50.802Z,5616.00
2023-03-06T08:38:50.827Z,5404.00
2023-03-06T08:39:50.792Z,5048.00
2023-03-06T08:40:50.770Z,4716.00
2023-03-06T08:41:50.732Z,4824.00
2023-03-06T08:42:50.742Z,4640.00
2023-03-06T08:43:50.738Z,4720.00
2023-03-06T08:44:50.728Z,5272.00
2023-03-06T08:45:50.799Z,5696.00
2023-03-06T08:46:50.676Z,5900.00
2023-03-06T08:47:50.653Z,6692.00
2023-03-06T08:48:50.679Z,7760.00
2023-03-06T08:49:50.642Z,8100.00
2023-03-06T08:50:50.639Z,8212.00
2023-03-06T08:51:50.644Z,9188.00
2023-03-06T08:52:50.597Z,10044.00
2023-03-06T08:53:50.598Z,9984.00
2023-03-06T08:54:50.577Z,10644.00
2023-03-06T08:55:50.560Z,10768.00
2023-03-06T08:56:50.550Z,10384.00
2023-03-06T08:57:50.565Z,10176.00
2023-03-06T08:58:50.522Z,8940.00
2023-03-06T08:59:50.522Z,8796.00
2023-03-06T09:00:50.587Z,9652.00
2023-03-06T09:01:50.481Z,11072.00
2023-03-06T09:02:50.471Z,12400.00
2023-03-06T09:03:50.491Z,13320.00
2023-03-06T09:04:50.449Z,13184.00
2023-03-06T09:05:50.431Z,14460.00
2023-03-06T09:06:50.432Z,13424.00
2023-03-06T09:07:50.425Z,12644.00
2023-03-06T09:08:50.418Z,12820.00
2023-03-06T09:09:50.410Z,13112.00
2023-03-06T09:10:50.449Z,13180.00
2023-03-06T09:11:50.361Z,13500.00
2023-03-06T09:12:53.160Z,13136.00
2023-03-06T09:13:50.326Z,12832.00
2023-03-06T09:14:50.319Z,12700.00
2023-03-06T09:15:50.329Z,12280.00
2023-03-06T09:16:50.306Z,11444.00
2023-03-06T09:17:50.313Z,11200.00
2023-03-06T09:18:50.269Z,11912.00
2023-03-06T09:19:50.262Z,12744.00
2023-03-06T09:20:50.242Z,11836.00
2023-03-06T09:21:50.275Z,12248.00
2023-03-06T09:22:50.209Z,13476.00
2023-03-06T09:23:50.227Z,16608.00
2023-03-06T09:24:50.184Z,16384.00
2023-03-06T09:25:50.177Z,14328.00
2023-03-06T09:26:51.713Z,13788.00
2023-03-06T09:28:01.833Z,14112.00
2023-03-06T09:28:50.153Z,14900.00
2023-03-06T09:29:50.147Z,15244.00
2023-03-06T09:30:50.175Z,14952.00
2023-03-06T09:31:50.099Z,14068.00
2023-03-06T09:32:50.090Z,13188.00
2023-03-06T09:33:50.118Z,12500.00
2023-03-06T09:34:50.084Z,12100.00
2023-03-06T09:35:50.106Z,11948.00
2023-03-06T09:36:56.607Z,11920.00
2023-03-06T09:37:50.030Z,12748.00
2023-03-06T09:38:50.215Z,13924.00
2023-03-06T09:39:50.049Z,14544.00
2023-03-06T09:40:49.992Z,14492.00
2023-03-06T09:41:49.979Z,15216.00
2023-03-06T09:42:49.975Z,15488.00
2023-03-06T09:43:49.950Z,14480.00
2023-03-06T09:44:49.938Z,13956.00
2023-03-06T09:45:49.971Z,13956.00
2023-03-06T09:46:49.941Z,14648.00
2023-03-06T09:47:49.903Z,15712.00
2023-03-06T09:48:49.886Z,16416.00
2023-03-06T09:49:49.872Z,16384.00
2023-03-06T09:50:49.877Z,16288.00
2023-03-06T09:51:49.871Z,16416.00
2023-03-06T09:52:49.828Z,16224.00
2023-03-06T09:53:49.813Z,15904.00
2023-03-06T09:54:49.807Z,15744.00
2023-03-06T09:55:49.807Z,16000.00
2023-03-06T09:56:49.771Z,16224.00
2023-03-06T09:57:51.201Z,15616.00
2023-03-06T09:58:49.745Z,15712.00
2023-03-06T09:59:49.740Z,17056.00
2023-03-06T10:00:49.719Z,18752.00
2023-03-06T10:01:49.713Z,19712.00
2023-03-06T10:02:49.813Z,18912.00
2023-03-06T10:03:49.721Z,18048.00
2023-03-06T10:04:49.749Z,18336.00
2023-03-06T10:05:49.655Z,20192.00
2023-03-06T10:06:49.659Z,19808.00
2023-03-06T10:07:49.633Z,19616.00
2023-03-06T10:08:49.630Z,20448.00
2023-03-06T10:09:49.656Z,19904.00
2023-03-06T10:10:49.594Z,20128.00
2023-03-06T10:11:49.578Z,19520.00
2023-03-06T10:12:49.571Z,18752.00
2023-03-06T10:13:49.562Z,18752.00
2023-03-06T10:14:49.537Z,19680.00
2023-03-06T10:15:49.617Z,22080.00
2023-03-06T10:16:49.523Z,22464.00
2023-03-06T10:17:49.535Z,21920.00
2023-03-06T10:18:49.493Z,19744.00
2023-03-06T10:19:49.600Z,19328.00
2023-03-06T10:20:49.486Z,18368.00
2023-03-06T10:21:49.495Z,19200.00
2023-03-06T10:23:00.549Z,19904.00
2023-03-06T10:23:49.454Z,20256.00
2023-03-06T10:24:49.417Z,19200.00
2023-03-06T10:25:49.418Z,19936.00
2023-03-06T10:26:49.513Z,21920.00
2023-03-06T10:27:49.401Z,24224.00
2023-03-06T10:28:49.371Z,23584.00
2023-03-06T10:30:01.682Z,21568.00
2023-03-06T10:30:49.404Z,22432.00
2023-03-06T10:31:49.770Z,22144.00
2023-03-06T10:32:49.762Z,21664.00
2023-03-06T10:33:49.395Z,20352.00
2023-03-06T10:34:49.294Z,19840.00
2023-03-06T10:35:49.371Z,19648.00
2023-03-06T10:36:49.284Z,19776.00
2023-03-06T10:37:49.266Z,21344.00
2023-03-06T10:38:49.239Z,22624.00
2023-03-06T10:39:49.262Z,22848.00
2023-03-06T10:40:49.210Z,23744.00
2023-03-06T10:41:49.213Z,21824.00
2023-03-06T10:42:53.986Z,22080.00
2023-03-06T10:43:49.181Z,22848.00
2023-03-06T10:44:49.158Z,28448.00
2023-03-06T10:45:49.781Z,21664.00
2023-03-06T10:46:49.249Z,20768.00
2023-03-06T10:47:49.126Z,20256.00
2023-03-06T10:48:49.127Z,20128.00
2023-03-06T10:49:49.115Z,20608.00
2023-03-06T10:50:49.091Z,20352.00
2023-03-06T10:51:49.113Z,20576.00
2023-03-06T10:52:49.080Z,20544.00
2023-03-06T10:53:49.039Z,22912.00
2023-03-06T10:54:49.052Z,22208.00
2023-03-06T10:55:49.017Z,24000.00
2023-03-06T10:56:49.010Z,22912.00
2023-03-06T10:57:49.038Z,21952.00
2023-03-06T10:58:49.003Z,21056.00
2023-03-06T10:59:48.993Z,21344.00
2023-03-06T11:00:48.959Z,21600.00
2023-03-06T11:01:48.995Z,22368.00
2023-03-06T11:02:48.926Z,21760.00
2023-03-06T11:03:48.939Z,21536.00
2023-03-06T11:04:48.986Z,22048.00
2023-03-06T11:05:48.927Z,21088.00
2023-03-06T11:06:48.917Z,21216.00
2023-03-06T11:07:48.864Z,20352.00
2023-03-06T11:08:48.878Z,21952.00
2023-03-06T11:09:48.970Z,21664.00
2023-03-06T11:10:48.851Z,20416.00
2023-03-06T11:11:48.812Z,19904.00
2023-03-06T11:12:48.798Z,20032.00
2023-03-06T11:13:48.807Z,21184.00
2023-03-06T11:14:48.805Z,21632.00
2023-03-06T11:15:48.803Z,21952.00
2023-03-06T11:16:48.772Z,22400.00
2023-03-06T11:17:48.767Z,22688.00
2023-03-06T11:18:48.750Z,23968.00
2023-03-06T11:19:48.729Z,23168.00
2023-03-06T11:20:52.410Z,22624.00
2023-03-06T11:21:48.714Z,21632.00
2023-03-06T11:22:49.307Z,21504.00
2023-03-06T11:23:48.685Z,23296.00
2023-03-06T11:24:48.707Z,23456.00
2023-03-06T11:25:48.631Z,22336.00
2023-03-06T11:26:48.632Z,22688.00
2023-03-06T11:27:48.647Z,23840.00
2023-03-06T11:28:48.716Z,24864.00
2023-03-06T11:29:49.249Z,21056.00
2023-03-06T11:30:48.568Z,19200.00
2023-03-06T11:31:48.556Z,20960.00
2023-03-06T11:32:48.544Z,25120.00
2023-03-06T11:33:48.591Z,26528.00
2023-03-06T11:34:50.428Z,28992.00
2023-03-06T11:35:48.533Z,23808.00
2023-03-06T11:36:48.502Z,20992.00
2023-03-06T11:37:48.483Z,24928.00
2023-03-06T11:38:48.465Z,30176.00
2023-03-06T11:39:48.564Z,29248.00
2023-03-06T11:40:48.449Z,24384.00
2023-03-06T11:41:48.439Z,22880.00
2023-03-06T11:42:48.432Z,28256.00
2023-03-06T11:43:48.398Z,28064.00
2023-03-06T11:44:48.399Z,30464.00
2023-03-06T11:45:48.432Z,32320.00
2023-03-06T11:46:48.474Z,33856.00
2023-03-06T11:47:48.363Z,33088.00
2023-03-06T11:48:48.390Z,32768.00
2023-03-06T11:49:48.348Z,32160.00
2023-03-06T11:50:48.326Z,33056.00
2023-03-06T11:51:48.340Z,32960.00
2023-03-06T11:52:48.299Z,32352.00
2023-03-06T11:53:48.275Z,31040.00
2023-03-06T11:54:48.287Z,32064.00
2023-03-06T11:55:48.267Z,28832.00
2023-03-06T11:56:48.277Z,28672.00
2023-03-06T11:57:48.253Z,28160.00
2023-03-06T11:58:48.216Z,31616.00
2023-03-06T11:59:48.210Z,24416.00
2023-03-06T12:00:48.237Z,27456.00
2023-03-06T12:01:48.204Z,22400.00
2023-03-06T12:02:48.161Z,20960.00
2023-03-06T12:03:48.184Z,29824.00
2023-03-06T12:04:48.146Z,25312.00
2023-03-06T12:05:48.192Z,29280.00
2023-03-06T12:06:48.192Z,27008.00
2023-03-06T12:07:48.120Z,18080.00
2023-03-06T12:08:48.118Z,15520.00
2023-03-06T12:09:48.112Z,16576.00
2023-03-06T12:10:51.745Z,20384.00
2023-03-06T12:11:48.066Z,21088.00
2023-03-06T12:12:48.037Z,23136.00
2023-03-06T12:13:48.068Z,23392.00
2023-03-06T12:14:48.037Z,30624.00
2023-03-06T12:15:48.053Z,22336.00
2023-03-06T12:16:48.050Z,20512.00
2023-03-06T12:17:47.973Z,17376.00
2023-03-06T12:18:47.963Z,15744.00
2023-03-06T12:19:47.949Z,24288.00
2023-03-06T12:20:47.942Z,24288.00
2023-03-06T12:21:47.978Z,24000.00
2023-03-06T12:22:57.889Z,20544.00
2023-03-06T12:23:47.915Z,21344.00
2023-03-06T12:24:47.896Z,19936.00
2023-03-06T12:25:47.884Z,16448.00
2023-03-06T12:26:47.867Z,13268.00
2023-03-06T12:27:47.911Z,11152.00
2023-03-06T12:28:47.842Z,11668.00
2023-03-06T12:29:47.822Z,12424.00
2023-03-06T12:30:47.831Z,22432.00
2023-03-06T12:31:47.842Z,14880.00
2023-03-06T12:32:47.892Z,11792.00